createdAt,value
2017-09-15T00:00:45.868Z,3.80
2017-09-15T00:01:43.134Z,4.30
2017-09-15T00:02:42.502Z,4.10
2017-09-15T00:03:39.737Z,4.10
2017-09-15T00:04:37.044Z,3.80
2017-09-15T00:05:36.405Z,3.90
2017-09-15T00:06:33.711Z,4.10
2017-09-15T00:07:30.981Z,4.10
2017-09-15T00:08:30.285Z,4.10
2017-09-15T00:09:27.542Z,4.10
2017-09-15T00:10:24.813Z,3.60
2017-09-15T00:11:22.057Z,4.20
2017-09-15T00:12:19.339Z,3.80
2017-09-15T00:13:16.607Z,4.40
2017-09-15T00:14:13.882Z,4.40
2017-09-15T00:15:11.134Z,3.70
2017-09-15T00:16:08.447Z,3.60
2017-09-15T00:17:05.703Z,4.00
2017-09-15T00:18:03.092Z,4.50
2017-09-15T00:19:00.374Z,4.20
2017-09-15T00:19:57.670Z,4.00
2017-09-15T00:20:54.930Z,4.10
2017-09-15T00:21:52.228Z,4.00
2017-09-15T00:22:49.502Z,4.20
2017-09-15T00:23:46.761Z,4.30
2017-09-15T00:24:44.019Z,4.10
2017-09-15T00:25:41.327Z,3.70
2017-09-15T00:26:38.600Z,4.20
2017-09-15T00:27:35.920Z,4.30
2017-09-15T00:28:33.194Z,4.40
2017-09-15T00:29:30.491Z,3.70
2017-09-15T00:30:27.742Z,4.10
2017-09-15T00:31:25.014Z,4.00
2017-09-15T00:32:22.250Z,3.90
2017-09-15T00:33:19.571Z,4.10
2017-09-15T00:34:16.869Z,4.40
2017-09-15T00:35:15.843Z,5.40
2017-09-15T00:36:13.085Z,4.90
2017-09-15T00:37:10.368Z,4.60
2017-09-15T00:38:07.646Z,4.20
2017-09-15T00:39:04.910Z,3.90
2017-09-15T00:40:02.194Z,4.00
2017-09-15T00:40:59.462Z,4.10
2017-09-15T00:41:56.710Z,4.00
2017-09-15T00:42:54.059Z,4.30
2017-09-15T00:43:51.318Z,4.10
2017-09-15T00:44:48.601Z,4.20
2017-09-15T00:45:45.853Z,4.40
2017-09-15T00:46:43.106Z,4.30
2017-09-15T00:47:40.339Z,4.30
2017-09-15T00:48:37.640Z,4.60
2017-09-15T00:49:34.907Z,4.10
2017-09-15T00:50:32.181Z,4.80
2017-09-15T00:51:29.442Z,5.00
2017-09-15T00:52:26.770Z,4.40
2017-09-15T00:53:24.042Z,5.10
2017-09-15T00:54:21.330Z,4.70
2017-09-15T00:55:18.578Z,4.50
2017-09-15T00:56:15.825Z,4.20
2017-09-15T00:57:13.065Z,4.30
2017-09-15T00:58:10.365Z,4.50
2017-09-15T00:59:07.622Z,4.40
2017-09-15T01:00:04.886Z,4.40
2017-09-15T01:01:02.141Z,4.60
2017-09-15T01:01:59.414Z,4.70
2017-09-15T01:02:56.714Z,4.70
2017-09-15T01:03:53.985Z,4.80
2017-09-15T01:04:51.237Z,5.00
2017-09-15T01:05:48.511Z,4.90
2017-09-15T01:06:45.756Z,5.10
2017-09-15T01:07:43.037Z,4.20
2017-09-15T01:08:41.239Z,4.50
2017-09-15T01:09:38.486Z,4.80
2017-09-15T01:10:35.709Z,4.70
2017-09-15T01:11:32.973Z,4.50
2017-09-15T01:12:30.286Z,4.00
2017-09-15T01:13:27.698Z,4.50
2017-09-15T01:14:24.985Z,4.60
2017-09-15T01:15:22.250Z,4.60
2017-09-15T01:16:19.496Z,4.90
2017-09-15T01:17:16.767Z,4.50
2017-09-15T01:18:16.110Z,4.90
2017-09-15T01:19:13.422Z,4.20
2017-09-15T01:20:10.675Z,4.80
2017-09-15T01:21:07.961Z,4.80
2017-09-15T01:22:05.194Z,4.70
2017-09-15T01:23:02.481Z,5.80
2017-09-15T01:23:59.762Z,5.10
2017-09-15T01:24:57.011Z,4.70
2017-09-15T01:25:54.245Z,5.20
2017-09-15T01:26:51.510Z,5.10
2017-09-15T01:27:48.744Z,4.50
2017-09-15T01:28:46.032Z,5.20
2017-09-15T01:29:43.278Z,5.40
2017-09-15T01:30:40.542Z,5.80
2017-09-15T01:31:37.818Z,5.40
2017-09-15T01:32:35.081Z,5.00
2017-09-15T01:33:32.362Z,4.90
2017-09-15T01:34:29.627Z,5.70
2017-09-15T01:35:26.882Z,6.10
2017-09-15T01:36:24.174Z,5.80
2017-09-15T01:37:21.422Z,6.60
2017-09-15T01:38:18.862Z,6.50
2017-09-15T01:39:16.107Z,6.20
2017-09-15T01:40:13.403Z,6.20
2017-09-15T01:41:10.674Z,6.30
2017-09-15T01:42:08.068Z,5.40
2017-09-15T01:43:05.496Z,6.20
2017-09-15T01:44:02.995Z,5.20
2017-09-15T01:45:00.427Z,6.30
2017-09-15T01:45:57.726Z,5.30
2017-09-15T01:46:57.333Z,6.30
2017-09-15T01:47:54.614Z,6.30
2017-09-15T01:48:51.885Z,6.60
2017-09-15T01:49:49.182Z,6.50
2017-09-15T01:50:46.450Z,6.50
2017-09-15T01:51:45.761Z,5.40
2017-09-15T01:52:43.018Z,6.20
2017-09-15T01:53:40.326Z,5.90
2017-09-15T01:54:37.594Z,6.10
2017-09-15T01:55:34.914Z,6.30
2017-09-15T01:56:32.180Z,6.80
2017-09-15T01:57:29.453Z,6.50
2017-09-15T01:58:26.696Z,6.50
2017-09-15T01:59:23.995Z,6.30
2017-09-15T02:00:21.274Z,6.20
2017-09-15T02:01:18.539Z,5.80
2017-09-15T02:02:15.785Z,5.80
2017-09-15T02:03:13.086Z,6.50
2017-09-15T02:04:10.362Z,6.00
2017-09-15T02:05:07.630Z,6.00
2017-09-15T02:06:04.890Z,6.20
2017-09-15T02:07:02.170Z,6.10
2017-09-15T02:07:59.430Z,5.60
2017-09-15T02:08:56.729Z,6.10
2017-09-15T02:09:53.986Z,6.40
2017-09-15T02:10:51.250Z,6.50
2017-09-15T02:11:48.486Z,5.70
2017-09-15T02:12:45.806Z,5.50
2017-09-15T02:13:45.143Z,6.20
2017-09-15T02:14:42.406Z,6.00
2017-09-15T02:15:39.641Z,5.70
2017-09-15T02:16:36.922Z,6.30
2017-09-15T02:17:34.213Z,6.60
2017-09-15T02:18:31.475Z,6.10
2017-09-15T02:19:28.742Z,7.20
2017-09-15T02:20:26.006Z,6.40
2017-09-15T02:21:23.249Z,6.20
2017-09-15T02:22:20.566Z,6.00
2017-09-15T02:23:17.814Z,6.70
2017-09-15T02:24:15.086Z,5.20
2017-09-15T02:25:12.324Z,6.40
2017-09-15T02:26:09.598Z,6.00
2017-09-15T02:27:06.851Z,6.10
2017-09-15T02:28:04.134Z,6.10
2017-09-15T02:29:01.395Z,5.90
2017-09-15T02:29:58.670Z,6.10
2017-09-15T02:30:55.978Z,5.90
2017-09-15T02:31:53.277Z,6.50
2017-09-15T02:32:50.551Z,5.90
2017-09-15T02:33:47.879Z,6.50
2017-09-15T02:34:45.138Z,7.50
2017-09-15T02:35:42.450Z,6.20
2017-09-15T02:36:39.727Z,6.20
2017-09-15T02:37:37.059Z,6.30
2017-09-15T02:38:34.306Z,6.00
2017-09-15T02:39:31.589Z,6.00
2017-09-15T02:40:28.829Z,6.30
2017-09-15T02:41:26.146Z,5.80
2017-09-15T02:42:23.394Z,6.40
2017-09-15T02:43:20.680Z,6.50
2017-09-15T02:44:17.954Z,5.50
2017-09-15T02:45:17.282Z,6.20
2017-09-15T02:46:14.528Z,6.00
2017-09-15T02:47:11.816Z,7.00
2017-09-15T02:48:09.086Z,6.60
2017-09-15T02:49:06.373Z,6.50
2017-09-15T02:50:03.646Z,6.30
2017-09-15T02:51:00.956Z,7.40
2017-09-15T02:51:58.227Z,6.20
2017-09-15T02:52:55.502Z,7.30
2017-09-15T02:53:52.773Z,6.70
2017-09-15T02:54:50.058Z,6.70
2017-09-15T02:55:47.307Z,7.80
2017-09-15T02:56:44.574Z,6.50
2017-09-15T02:57:41.839Z,6.70
2017-09-15T02:58:39.125Z,7.90
2017-09-15T02:59:36.402Z,6.50
2017-09-15T03:00:33.731Z,6.90
2017-09-15T03:01:30.986Z,6.30
2017-09-15T03:02:28.265Z,6.50
2017-09-15T03:03:25.541Z,7.60
2017-09-15T03:04:22.824Z,6.90
2017-09-15T03:05:20.073Z,7.10
2017-09-15T03:06:17.333Z,6.80
2017-09-15T03:07:14.586Z,7.70
2017-09-15T03:08:11.861Z,7.10
2017-09-15T03:09:09.119Z,7.10
2017-09-15T03:10:06.429Z,6.10
2017-09-15T03:11:03.705Z,6.60
2017-09-15T03:12:00.985Z,7.00
2017-09-15T03:12:58.226Z,7.10
2017-09-15T03:13:55.505Z,6.40
2017-09-15T03:14:52.803Z,6.60
2017-09-15T03:15:50.094Z,7.00
2017-09-15T03:16:47.357Z,7.30
2017-09-15T03:17:44.631Z,7.00
2017-09-15T03:18:41.918Z,7.20
2017-09-15T03:19:39.205Z,6.60
2017-09-15T03:20:36.502Z,7.30
2017-09-15T03:21:33.787Z,7.80
2017-09-15T03:22:31.090Z,6.80
2017-09-15T03:23:28.369Z,7.10
2017-09-15T03:24:25.662Z,6.60
2017-09-15T03:25:22.991Z,7.50
2017-09-15T03:26:20.265Z,6.70
2017-09-15T03:27:17.574Z,7.50
2017-09-15T03:28:14.837Z,7.00
2017-09-15T03:29:12.114Z,7.30
2017-09-15T03:30:09.367Z,6.70
2017-09-15T03:31:08.694Z,7.20
2017-09-15T03:32:05.931Z,6.70
2017-09-15T03:33:03.197Z,6.20
2017-09-15T03:34:00.442Z,6.50
2017-09-15T03:34:57.740Z,7.30
2017-09-15T03:35:55.062Z,6.90
2017-09-15T03:36:53.230Z,7.30
2017-09-15T03:37:50.866Z,6.30
2017-09-15T03:38:48.289Z,6.80
2017-09-15T03:39:45.867Z,6.60
2017-09-15T03:40:43.278Z,6.90
2017-09-15T03:41:40.684Z,7.40
2017-09-15T03:42:38.042Z,6.40
2017-09-15T03:43:35.318Z,6.80
2017-09-15T03:44:32.610Z,6.10
2017-09-15T03:45:29.907Z,6.80
2017-09-15T03:46:27.225Z,6.60
2017-09-15T03:47:24.541Z,6.60
2017-09-15T03:48:21.969Z,7.00
2017-09-15T03:49:19.302Z,6.80
2017-09-15T03:50:16.621Z,6.00
2017-09-15T03:51:13.879Z,8.10
2017-09-15T03:52:11.173Z,5.80
2017-09-15T03:53:08.459Z,6.40
2017-09-15T03:54:05.782Z,7.40
2017-09-15T03:55:03.111Z,6.70
2017-09-15T03:56:00.418Z,5.60
2017-09-15T03:56:57.722Z,6.00
2017-09-15T03:57:55.044Z,6.70
2017-09-15T03:58:53.953Z,5.50
2017-09-15T03:59:51.385Z,6.20
2017-09-15T04:00:48.819Z,5.50
2017-09-15T04:01:46.093Z,5.00
2017-09-15T04:02:43.433Z,5.20
2017-09-15T04:03:40.850Z,5.80
2017-09-15T04:04:38.165Z,6.00
2017-09-15T04:05:35.466Z,5.80
2017-09-15T04:06:32.727Z,5.50
2017-09-15T04:07:30.005Z,5.10
2017-09-15T04:08:27.258Z,5.30
2017-09-15T04:09:24.549Z,5.40
2017-09-15T04:10:21.798Z,4.60
2017-09-15T04:11:19.097Z,4.80
2017-09-15T04:12:16.426Z,5.40
2017-09-15T04:13:13.792Z,5.40
2017-09-15T04:14:11.090Z,4.90
2017-09-15T04:15:08.351Z,4.90
2017-09-15T04:16:05.626Z,5.50
2017-09-15T04:17:02.921Z,5.20
2017-09-15T04:18:00.156Z,5.30
2017-09-15T04:18:57.433Z,5.50
2017-09-15T04:19:54.674Z,4.90
2017-09-15T04:20:51.969Z,5.30
2017-09-15T04:21:49.263Z,4.90
2017-09-15T04:22:47.081Z,5.20
2017-09-15T04:23:44.302Z,5.00
2017-09-15T04:24:41.605Z,5.50
2017-09-15T04:25:38.954Z,5.70
2017-09-15T04:26:36.258Z,5.60
2017-09-15T04:27:33.513Z,6.20
2017-09-15T04:28:30.792Z,5.40
2017-09-15T04:29:28.035Z,5.60
2017-09-15T04:30:25.340Z,6.10
2017-09-15T04:31:22.618Z,5.40
2017-09-15T04:32:19.886Z,6.40
2017-09-15T04:33:17.129Z,7.10
2017-09-15T04:34:14.395Z,5.70
2017-09-15T04:35:11.630Z,5.80
2017-09-15T04:36:08.907Z,6.80
2017-09-15T04:37:06.442Z,7.10
2017-09-15T04:38:03.739Z,5.80
2017-09-15T04:39:01.090Z,6.30
2017-09-15T04:39:58.408Z,6.20
2017-09-15T04:40:57.749Z,5.70
2017-09-15T04:41:55.040Z,6.10
2017-09-15T04:42:52.283Z,5.70
2017-09-15T04:43:49.609Z,6.20
2017-09-15T04:44:46.906Z,6.70
2017-09-15T04:45:44.213Z,6.20
2017-09-15T04:46:41.478Z,7.20
2017-09-15T04:47:38.742Z,6.30
2017-09-15T04:48:35.982Z,5.90
2017-09-15T04:49:33.248Z,6.60
2017-09-15T04:50:30.482Z,6.10
2017-09-15T04:51:27.767Z,5.90
2017-09-15T04:52:25.019Z,6.30
2017-09-15T04:53:22.302Z,7.20
2017-09-15T04:54:19.551Z,6.40
2017-09-15T04:55:16.820Z,6.10
2017-09-15T04:56:14.108Z,6.30
2017-09-15T04:57:11.361Z,5.70
2017-09-15T04:58:08.613Z,6.60
2017-09-15T04:59:05.873Z,6.90
2017-09-15T05:00:03.193Z,6.70
2017-09-15T05:01:00.461Z,6.60
2017-09-15T05:01:57.732Z,7.10
2017-09-15T05:02:55.040Z,6.00
2017-09-15T05:03:52.314Z,7.30
2017-09-15T05:04:49.596Z,6.40
2017-09-15T05:05:46.836Z,7.60
2017-09-15T05:06:46.161Z,7.20
2017-09-15T05:07:43.434Z,7.10
2017-09-15T05:08:40.707Z,6.30
2017-09-15T05:09:40.013Z,5.90
2017-09-15T05:10:37.273Z,6.70
2017-09-15T05:11:34.550Z,6.50
2017-09-15T05:12:31.894Z,6.50
2017-09-15T05:13:29.202Z,6.20
2017-09-15T05:14:26.487Z,7.00
2017-09-15T05:15:23.752Z,6.30
2017-09-15T05:16:21.030Z,6.00
2017-09-15T05:17:18.270Z,6.10
2017-09-15T05:18:15.550Z,6.30
2017-09-15T05:19:12.804Z,5.60
2017-09-15T05:20:10.092Z,6.50
2017-09-15T05:21:07.374Z,6.60
2017-09-15T05:22:04.671Z,6.10
2017-09-15T05:23:01.898Z,6.50
2017-09-15T05:23:59.176Z,7.50
2017-09-15T05:25:01.453Z,6.80
2017-09-15T05:25:58.736Z,6.30
2017-09-15T05:26:56.017Z,6.10
2017-09-15T05:27:53.319Z,6.00
2017-09-15T05:28:50.578Z,6.70
2017-09-15T05:29:47.830Z,6.70
2017-09-15T05:30:45.073Z,6.50
2017-09-15T05:31:42.394Z,6.70
2017-09-15T05:32:39.649Z,6.90
2017-09-15T05:33:36.929Z,5.30
2017-09-15T05:34:34.190Z,6.30
2017-09-15T05:35:31.482Z,5.90
2017-09-15T05:36:28.789Z,5.90
2017-09-15T05:37:26.082Z,5.70
2017-09-15T05:38:23.326Z,5.30
2017-09-15T05:39:20.581Z,6.10
2017-09-15T05:40:17.825Z,5.80
2017-09-15T05:41:15.137Z,5.80
2017-09-15T05:42:12.464Z,6.00
2017-09-15T05:43:09.733Z,6.20
2017-09-15T05:44:06.966Z,6.40
2017-09-15T05:45:04.266Z,5.60
2017-09-15T05:46:01.567Z,7.00
2017-09-15T05:46:58.837Z,5.90
2017-09-15T05:47:56.086Z,6.20
2017-09-15T05:48:53.365Z,6.00
2017-09-15T05:49:50.618Z,5.90
2017-09-15T05:50:47.909Z,6.00
2017-09-15T05:51:45.184Z,5.00
2017-09-15T05:52:42.458Z,6.10
2017-09-15T05:53:39.689Z,5.60
2017-09-15T05:54:36.954Z,5.70
2017-09-15T05:55:34.223Z,5.90
2017-09-15T05:56:31.501Z,6.00
2017-09-15T05:57:28.742Z,5.50
2017-09-15T05:58:26.013Z,5.30
2017-09-15T05:59:23.307Z,5.80
2017-09-15T06:00:20.582Z,5.90
2017-09-15T06:01:17.832Z,5.70
2017-09-15T06:02:15.119Z,6.10
2017-09-15T06:03:12.375Z,6.90
2017-09-15T06:04:09.653Z,6.20
2017-09-15T06:05:06.910Z,6.10
2017-09-15T06:06:04.231Z,6.50
2017-09-15T06:07:01.498Z,6.40
2017-09-15T06:07:58.777Z,5.80
2017-09-15T06:08:56.018Z,5.80
2017-09-15T06:09:53.278Z,5.70
2017-09-15T06:10:50.537Z,6.50
2017-09-15T06:11:47.870Z,6.60
2017-09-15T06:12:45.152Z,5.90
2017-09-15T06:13:42.441Z,5.40
2017-09-15T06:14:39.712Z,6.50
2017-09-15T06:15:36.977Z,6.40
2017-09-15T06:16:34.269Z,5.70
2017-09-15T06:17:31.581Z,7.50
2017-09-15T06:18:28.922Z,7.00
2017-09-15T06:19:26.237Z,6.60
2017-09-15T06:20:23.670Z,6.50
2017-09-15T06:21:21.042Z,5.90
2017-09-15T06:22:18.321Z,7.00
2017-09-15T06:23:15.582Z,7.10
2017-09-15T06:24:12.846Z,6.50
2017-09-15T06:25:10.113Z,6.60
2017-09-15T06:26:07.375Z,7.90
2017-09-15T06:27:04.658Z,6.70
2017-09-15T06:28:01.911Z,7.20
2017-09-15T06:28:59.198Z,7.10
2017-09-15T06:29:56.441Z,7.70
2017-09-15T06:30:53.706Z,6.70
2017-09-15T06:31:50.980Z,6.80
2017-09-15T06:32:48.246Z,6.90
2017-09-15T06:33:45.485Z,7.00
2017-09-15T06:34:42.781Z,7.20
2017-09-15T06:35:40.049Z,7.70
2017-09-15T06:36:37.314Z,7.90
2017-09-15T06:37:34.592Z,7.30
2017-09-15T06:38:32.039Z,7.90
2017-09-15T06:39:31.228Z,6.60
2017-09-15T06:40:28.507Z,7.50
2017-09-15T06:41:25.779Z,7.50
2017-09-15T06:42:23.077Z,7.40
2017-09-15T06:43:22.412Z,7.30
2017-09-15T06:44:19.694Z,6.80
2017-09-15T06:45:16.958Z,7.60
2017-09-15T06:46:14.234Z,12.50
2017-09-15T06:47:11.513Z,12.60
2017-09-15T06:48:08.801Z,13.60
2017-09-15T06:49:06.086Z,12.60
2017-09-15T06:50:03.363Z,13.10
2017-09-15T06:51:01.550Z,13.90
2017-09-15T06:51:58.843Z,14.50
2017-09-15T06:52:56.105Z,12.30
2017-09-15T06:53:53.381Z,13.40
2017-09-15T06:54:50.646Z,14.50
2017-09-15T06:55:47.937Z,9.80
2017-09-15T06:56:45.231Z,10.30
2017-09-15T06:57:42.567Z,8.60
2017-09-15T06:58:40.610Z,9.00
2017-09-15T06:59:37.928Z,8.90
2017-09-15T07:00:35.197Z,9.80
2017-09-15T07:01:32.485Z,9.40
2017-09-15T07:02:29.755Z,7.90
2017-09-15T07:03:27.043Z,9.50
2017-09-15T07:04:24.281Z,9.60
2017-09-15T07:05:21.563Z,9.80
2017-09-15T07:06:18.856Z,9.80
2017-09-15T07:07:16.197Z,9.30
2017-09-15T07:08:13.438Z,9.10
2017-09-15T07:09:10.731Z,9.40
2017-09-15T07:10:07.970Z,9.30
2017-09-15T07:11:05.254Z,8.40
2017-09-15T07:12:02.530Z,9.50
2017-09-15T07:12:59.866Z,9.10
2017-09-15T07:13:57.117Z,8.40
2017-09-15T07:14:54.462Z,10.20
2017-09-15T07:15:51.705Z,8.50
2017-09-15T07:16:49.077Z,8.40
2017-09-15T07:17:46.362Z,9.60
2017-09-15T07:18:45.789Z,8.60
2017-09-15T07:19:43.055Z,8.30
2017-09-15T07:20:40.339Z,8.00
2017-09-15T07:21:37.590Z,8.50
2017-09-15T07:22:34.917Z,8.90
2017-09-15T07:23:32.247Z,9.80
2017-09-15T07:24:29.525Z,9.30
2017-09-15T07:25:26.806Z,9.10
2017-09-15T07:26:24.085Z,8.90
2017-09-15T07:27:21.369Z,9.30
2017-09-15T07:28:18.703Z,8.80
2017-09-15T07:29:16.035Z,8.30
2017-09-15T07:30:13.478Z,9.40
2017-09-15T07:31:10.771Z,9.40
2017-09-15T07:32:08.054Z,8.40
2017-09-15T07:33:05.346Z,8.50
2017-09-15T07:34:02.654Z,8.60
2017-09-15T07:34:59.941Z,9.10
2017-09-15T07:35:59.277Z,8.80
2017-09-15T07:36:56.545Z,8.90
2017-09-15T07:37:53.869Z,7.70
2017-09-15T07:38:51.174Z,8.20
2017-09-15T07:39:48.430Z,8.30
2017-09-15T07:40:45.674Z,8.80
2017-09-15T07:41:42.957Z,8.20
2017-09-15T07:42:40.266Z,9.00
2017-09-15T07:43:37.745Z,8.60
2017-09-15T07:44:35.006Z,8.90
2017-09-15T07:45:32.321Z,8.60
2017-09-15T07:46:29.577Z,8.30
2017-09-15T07:47:26.889Z,7.60
2017-09-15T07:48:24.162Z,8.60
2017-09-15T07:49:21.433Z,9.00
2017-09-15T07:50:18.694Z,9.30
2017-09-15T07:51:15.969Z,8.30
2017-09-15T07:52:13.225Z,7.60
2017-09-15T07:53:10.517Z,9.20
2017-09-15T07:54:07.838Z,8.30
2017-09-15T07:55:05.170Z,8.90
2017-09-15T07:56:02.440Z,8.20
2017-09-15T07:56:59.722Z,8.70
2017-09-15T07:57:57.037Z,7.90
2017-09-15T07:58:54.330Z,7.40
2017-09-15T07:59:51.601Z,7.50
2017-09-15T08:00:48.894Z,8.10
2017-09-15T08:01:46.173Z,8.10
2017-09-15T08:02:43.452Z,8.60
2017-09-15T08:03:40.878Z,8.10
2017-09-15T08:04:38.170Z,8.30
2017-09-15T08:05:35.445Z,8.40
2017-09-15T08:06:32.807Z,8.00
2017-09-15T08:07:30.096Z,7.50
2017-09-15T08:08:27.420Z,8.60
2017-09-15T08:09:24.683Z,8.00
2017-09-15T08:10:21.951Z,8.20
2017-09-15T08:11:19.194Z,8.30
2017-09-15T08:12:16.485Z,7.60
2017-09-15T08:13:13.754Z,8.40
2017-09-15T08:14:11.020Z,7.80
2017-09-15T08:15:08.301Z,7.80
2017-09-15T08:16:07.614Z,7.00
2017-09-15T08:17:04.876Z,6.60
2017-09-15T08:18:02.166Z,7.30
2017-09-15T08:18:59.428Z,8.70
2017-09-15T08:19:58.755Z,7.10
2017-09-15T08:20:56.006Z,6.80
2017-09-15T08:21:53.268Z,6.70
2017-09-15T08:22:50.522Z,7.30
2017-09-15T08:23:47.802Z,7.90
2017-09-15T08:24:45.070Z,7.60
2017-09-15T08:25:42.403Z,7.00
2017-09-15T08:26:39.657Z,7.40
2017-09-15T08:27:36.934Z,7.30
2017-09-15T08:28:34.204Z,7.40
2017-09-15T08:29:31.498Z,8.90
2017-09-15T08:30:28.725Z,7.40
2017-09-15T08:31:26.002Z,7.70
2017-09-15T08:32:23.281Z,6.70
2017-09-15T08:33:20.587Z,6.30
2017-09-15T08:34:17.855Z,6.70
2017-09-15T08:35:15.135Z,6.40
2017-09-15T08:36:12.411Z,7.10
2017-09-15T08:37:09.693Z,6.20
2017-09-15T08:38:06.983Z,7.70
2017-09-15T08:39:04.273Z,6.70
2017-09-15T08:40:01.573Z,7.20
2017-09-15T08:40:58.872Z,7.80
2017-09-15T08:41:56.150Z,7.60
2017-09-15T08:42:53.419Z,6.70
2017-09-15T08:43:50.739Z,7.10
2017-09-15T08:44:50.122Z,6.80
2017-09-15T08:45:47.398Z,6.00
2017-09-15T08:46:44.669Z,6.10
2017-09-15T08:47:41.923Z,6.20
2017-09-15T08:48:39.241Z,6.20
2017-09-15T08:49:36.523Z,6.60
2017-09-15T08:50:33.853Z,5.70
2017-09-15T08:51:33.176Z,5.80
2017-09-15T08:52:30.493Z,6.00
2017-09-15T08:53:27.786Z,6.50
2017-09-15T08:54:25.049Z,5.10
2017-09-15T08:55:22.317Z,5.90
2017-09-15T08:56:19.642Z,5.10
2017-09-15T08:57:16.910Z,4.60
2017-09-15T08:58:14.196Z,4.70
2017-09-15T08:59:11.446Z,4.60
2017-09-15T09:00:08.720Z,4.60
2017-09-15T09:01:05.966Z,5.80
2017-09-15T09:02:03.241Z,4.80
2017-09-15T09:03:00.485Z,4.80
2017-09-15T09:03:57.783Z,4.90
2017-09-15T09:04:55.089Z,4.50
2017-09-15T09:05:52.427Z,4.30
2017-09-15T09:06:49.761Z,4.20
2017-09-15T09:07:47.091Z,4.40
2017-09-15T09:08:44.570Z,4.30
2017-09-15T09:09:41.849Z,5.30
2017-09-15T09:10:39.097Z,4.20
2017-09-15T09:11:36.375Z,4.70
2017-09-15T09:12:33.633Z,4.40
2017-09-15T09:13:30.922Z,4.20
2017-09-15T09:14:28.189Z,4.00
2017-09-15T09:15:25.538Z,3.90
2017-09-15T09:16:22.856Z,3.90
2017-09-15T09:17:20.154Z,3.70
2017-09-15T09:18:17.422Z,3.60
2017-09-15T09:19:14.718Z,3.70
2017-09-15T09:20:11.983Z,4.70
2017-09-15T09:21:09.274Z,4.30
2017-09-15T09:22:06.606Z,4.30
2017-09-15T09:23:03.950Z,4.50
2017-09-15T09:24:01.235Z,4.50
2017-09-15T09:24:58.561Z,4.20
2017-09-15T09:25:55.786Z,4.40
2017-09-15T09:26:53.065Z,4.70
2017-09-15T09:27:50.357Z,4.20
2017-09-15T09:28:47.710Z,4.20
2017-09-15T09:29:45.002Z,4.20
2017-09-15T09:30:42.273Z,4.20
2017-09-15T09:31:39.517Z,4.30
2017-09-15T09:32:36.811Z,4.30
2017-09-15T09:33:34.062Z,4.20
2017-09-15T09:34:31.427Z,4.30
2017-09-15T09:35:28.681Z,4.00
2017-09-15T09:36:26.003Z,3.70
2017-09-15T09:37:23.260Z,4.20
2017-09-15T09:38:20.525Z,4.10
2017-09-15T09:39:17.774Z,4.30
2017-09-15T09:40:15.514Z,3.80
2017-09-15T09:41:12.759Z,4.10
2017-09-15T09:42:10.074Z,4.20
2017-09-15T09:43:07.301Z,4.00
2017-09-15T09:44:04.609Z,4.00
2017-09-15T09:45:01.876Z,3.80
2017-09-15T09:45:59.189Z,4.20
2017-09-15T09:46:56.469Z,4.50
2017-09-15T09:47:53.813Z,3.90
2017-09-15T09:48:51.066Z,4.40
2017-09-15T09:49:48.357Z,4.10
2017-09-15T09:50:45.618Z,4.10
2017-09-15T09:51:42.889Z,4.40
2017-09-15T09:52:40.146Z,4.10
2017-09-15T09:53:37.771Z,4.10
2017-09-15T09:54:35.697Z,3.90
2017-09-15T09:55:32.962Z,4.10
2017-09-15T09:56:30.207Z,3.30
2017-09-15T09:57:27.460Z,4.10
2017-09-15T09:58:26.827Z,4.20
2017-09-15T09:59:24.098Z,3.20
2017-09-15T10:00:21.385Z,4.20
2017-09-15T10:01:18.664Z,3.90
2017-09-15T10:02:15.977Z,4.40
2017-09-15T10:03:13.270Z,3.50
2017-09-15T10:04:10.593Z,4.30
2017-09-15T10:05:07.907Z,3.90
2017-09-15T10:06:05.223Z,4.30
2017-09-15T10:07:02.462Z,4.60
2017-09-15T10:07:59.746Z,4.30
2017-09-15T10:08:57.002Z,3.80
2017-09-15T10:09:54.286Z,3.70
2017-09-15T10:10:51.554Z,4.20
2017-09-15T10:11:48.837Z,3.90
2017-09-15T10:12:46.087Z,4.50
2017-09-15T10:13:43.353Z,3.70
2017-09-15T10:14:40.625Z,4.10
2017-09-15T10:15:37.934Z,4.10
2017-09-15T10:16:35.185Z,3.80
2017-09-15T10:17:32.493Z,4.90
2017-09-15T10:18:29.738Z,4.60
2017-09-15T10:19:27.077Z,3.80
2017-09-15T10:20:24.339Z,4.20
2017-09-15T10:21:21.609Z,4.70
2017-09-15T10:22:18.855Z,4.50
2017-09-15T10:23:16.111Z,4.20
2017-09-15T10:24:13.373Z,4.60
2017-09-15T10:25:10.657Z,3.60
2017-09-15T10:26:07.922Z,3.40
2017-09-15T10:27:05.173Z,4.00
2017-09-15T10:28:02.405Z,4.60
2017-09-15T10:28:59.697Z,4.60
2017-09-15T10:29:57.349Z,4.00
2017-09-15T10:30:54.593Z,4.00
2017-09-15T10:31:51.831Z,4.30
2017-09-15T10:32:49.111Z,4.10
2017-09-15T10:33:46.378Z,4.80
2017-09-15T10:34:43.717Z,4.30
2017-09-15T10:35:40.975Z,3.70
2017-09-15T10:36:38.276Z,4.30
2017-09-15T10:37:35.520Z,4.30
2017-09-15T10:38:32.797Z,4.10
2017-09-15T10:39:30.092Z,4.10
2017-09-15T10:40:27.425Z,4.40
2017-09-15T10:41:26.735Z,3.80
2017-09-15T10:42:23.977Z,4.40
2017-09-15T10:43:21.257Z,4.10
2017-09-15T10:44:18.482Z,4.40
2017-09-15T10:45:15.786Z,4.60
2017-09-15T10:46:13.018Z,4.80
2017-09-15T10:47:10.264Z,4.60
2017-09-15T10:48:07.501Z,4.20
2017-09-15T10:49:04.742Z,3.90
2017-09-15T10:50:02.003Z,4.20
2017-09-15T10:50:59.281Z,4.10
2017-09-15T10:51:56.534Z,4.50
2017-09-15T10:52:53.817Z,4.30
2017-09-15T10:53:51.109Z,4.10
2017-09-15T10:54:48.398Z,4.00
2017-09-15T10:55:45.670Z,3.60
2017-09-15T10:56:42.946Z,3.80
2017-09-15T10:57:40.181Z,4.00
2017-09-15T10:58:42.001Z,4.10
2017-09-15T10:59:43.850Z,3.60
2017-09-15T11:01:13.961Z,3.60
2017-09-15T11:02:11.211Z,4.00
2017-09-15T11:03:08.493Z,3.90
2017-09-15T11:04:05.746Z,3.90
2017-09-15T11:05:03.066Z,3.40
2017-09-15T11:06:00.449Z,3.60
2017-09-15T11:06:57.738Z,3.50
2017-09-15T11:07:55.015Z,3.90
2017-09-15T11:08:52.307Z,3.70
2017-09-15T11:09:49.568Z,3.80
2017-09-15T11:10:46.833Z,4.30
2017-09-15T11:11:44.066Z,3.90
2017-09-15T11:12:41.329Z,3.90
2017-09-15T11:13:38.563Z,4.20
2017-09-15T11:14:35.835Z,4.10
2017-09-15T11:15:33.172Z,4.10
2017-09-15T11:16:30.444Z,4.10
2017-09-15T11:17:27.692Z,4.20
2017-09-15T11:18:24.953Z,4.40
2017-09-15T11:19:22.219Z,4.80
2017-09-15T11:20:19.514Z,4.20
2017-09-15T11:21:16.787Z,4.00
2017-09-15T11:22:14.143Z,3.60
2017-09-15T11:23:12.492Z,3.60
2017-09-15T11:24:10.251Z,4.00
2017-09-15T11:25:07.545Z,3.90
2017-09-15T11:26:04.797Z,4.50
2017-09-15T11:27:02.061Z,4.00
2017-09-15T11:27:59.346Z,3.90
2017-09-15T11:28:56.649Z,3.80
2017-09-15T11:29:54.019Z,3.70
2017-09-15T11:30:51.305Z,3.70
2017-09-15T11:31:48.611Z,4.00
2017-09-15T11:32:45.908Z,3.90
2017-09-15T11:33:43.193Z,4.00
2017-09-15T11:34:40.466Z,3.50
2017-09-15T11:35:37.777Z,3.80
2017-09-15T11:36:35.022Z,3.90
2017-09-15T11:37:32.353Z,4.10
2017-09-15T11:38:29.627Z,3.60
2017-09-15T11:39:26.949Z,4.00
2017-09-15T11:40:24.338Z,3.50
2017-09-15T11:41:21.610Z,3.80
2017-09-15T11:42:18.858Z,3.80
2017-09-15T11:43:16.209Z,3.60
2017-09-15T11:44:13.475Z,3.70
2017-09-15T11:45:10.847Z,3.50
2017-09-15T11:46:08.107Z,3.30
2017-09-15T11:47:05.410Z,3.60
2017-09-15T11:48:02.713Z,3.60
2017-09-15T11:49:00.060Z,3.40
2017-09-15T11:49:57.352Z,3.50
2017-09-15T11:50:54.660Z,3.90
2017-09-15T11:51:51.978Z,3.50
2017-09-15T11:52:49.271Z,3.30
2017-09-15T11:53:46.530Z,3.70
2017-09-15T11:54:43.809Z,3.50
2017-09-15T11:55:41.132Z,4.20
2017-09-15T11:56:38.402Z,3.60
2017-09-15T11:57:35.652Z,3.20
2017-09-15T11:58:32.965Z,3.80
2017-09-15T11:59:30.231Z,3.50
2017-09-15T12:00:27.534Z,4.10
2017-09-15T12:01:24.810Z,3.20
2017-09-15T12:02:22.198Z,3.60
2017-09-15T12:03:19.470Z,3.60
2017-09-15T12:04:16.796Z,3.20
2017-09-15T12:05:14.097Z,3.50
2017-09-15T12:06:11.385Z,3.70
2017-09-15T12:07:08.655Z,3.40
2017-09-15T12:08:05.985Z,3.60
2017-09-15T12:09:03.261Z,4.00
2017-09-15T12:10:01.335Z,3.60
2017-09-15T12:10:58.655Z,3.40
2017-09-15T12:11:55.964Z,3.30
2017-09-15T12:12:53.824Z,4.00
2017-09-15T12:13:52.017Z,3.40
2017-09-15T12:14:50.982Z,3.60
2017-09-15T12:15:48.283Z,3.20
2017-09-15T12:16:45.604Z,3.60
2017-09-15T12:17:42.861Z,3.20
2017-09-15T12:18:40.125Z,3.20
2017-09-15T12:19:37.406Z,2.80
2017-09-15T12:20:34.719Z,3.60
2017-09-15T12:21:32.049Z,3.20
2017-09-15T12:22:29.384Z,3.60
2017-09-15T12:23:26.657Z,3.60
2017-09-15T12:24:23.926Z,2.90
2017-09-15T12:25:22.014Z,3.30
2017-09-15T12:26:19.329Z,4.00
2017-09-15T12:27:16.566Z,3.20
2017-09-15T12:28:13.907Z,3.10
2017-09-15T12:29:11.170Z,3.50
2017-09-15T12:30:08.438Z,3.20
2017-09-15T12:31:05.826Z,3.30
2017-09-15T12:32:03.268Z,3.30
2017-09-15T12:33:00.506Z,3.40
2017-09-15T12:33:58.846Z,3.40
2017-09-15T12:34:56.117Z,3.50
2017-09-15T12:35:53.439Z,3.20
2017-09-15T12:36:50.704Z,3.50
2017-09-15T12:37:48.002Z,3.10
2017-09-15T12:38:45.263Z,2.90
2017-09-15T12:39:42.565Z,3.50
2017-09-15T12:40:39.879Z,3.00
2017-09-15T12:41:37.187Z,3.20
2017-09-15T12:42:34.990Z,3.60
2017-09-15T12:43:32.275Z,7.90
2017-09-15T12:44:29.701Z,8.90